Terminal Aerodrome Forecast
Issued by NWS St Louis, MO

Home | Current Version | Previous Version | Text Only | Print | Product List | Glossary On
Versions: 1 2 3 4 5 6 7 8 9 10 11 12 13 14 15 16 17 18 19 20 21
246
FTUS43 KLSX 262321
TAFCOU
TAF
KCOU 262321Z 2700/2724 18008KT P6SM SCT025 BKN060
     FM271100 14004KT 5SM BR SCT130
     FM271500 14010KT P6SM FEW250=

USA.gov is the U.S. government's official web portal to all federal, state and local government web resources and services.